createdAt,value
2019-05-09T00:01:34.234Z,86.90
2019-05-09T00:04:03.399Z,89.00
2019-05-09T00:06:33.987Z,87.00
2019-05-09T00:09:03.782Z,87.70
2019-05-09T00:11:33.537Z,86.80
2019-05-09T00:14:01.388Z,86.90
2019-05-09T00:16:29.516Z,86.50
2019-05-09T00:18:57.236Z,86.10
2019-05-09T00:21:30.632Z,88.10
2019-05-09T00:23:58.429Z,89.00
2019-05-09T00:26:26.158Z,88.30
2019-05-09T00:28:58.249Z,88.70
2019-05-09T00:31:38.813Z,87.60
2019-05-09T00:34:09.156Z,87.90
2019-05-09T00:36:36.973Z,86.00
2019-05-09T00:39:05.980Z,86.10
2019-05-09T00:41:34.091Z,85.90
2019-05-09T00:44:11.268Z,86.10
2019-05-09T00:46:56.040Z,86.60
2019-05-09T00:49:25.956Z,88.00
2019-05-09T00:51:54.676Z,87.90
2019-05-09T00:54:24.080Z,90.20
2019-05-09T00:56:53.922Z,90.20
2019-05-09T00:59:23.943Z,88.80
2019-05-09T01:01:54.132Z,90.20
2019-05-09T01:04:24.012Z,88.70
2019-05-09T01:06:53.816Z,88.80
2019-05-09T01:09:21.227Z,89.40
2019-05-09T01:11:49.050Z,89.60
2019-05-09T01:14:16.969Z,88.30
2019-05-09T01:16:44.759Z,88.70
2019-05-09T01:19:14.089Z,88.70
2019-05-09T01:21:43.856Z,87.90
2019-05-09T01:24:13.922Z,89.40
2019-05-09T01:26:43.483Z,88.60
2019-05-09T01:29:13.682Z,86.60
2019-05-09T01:31:43.426Z,86.00
2019-05-09T01:34:23.999Z,89.00
2019-05-09T01:37:07.602Z,88.40
2019-05-09T01:39:36.001Z,88.50
2019-05-09T01:42:05.914Z,90.20
2019-05-09T01:44:34.194Z,90.20
2019-05-09T01:47:03.761Z,90.50
2019-05-09T01:49:33.902Z,88.90
2019-05-09T01:52:03.322Z,90.10
2019-05-09T01:54:33.263Z,90.00
2019-05-09T01:57:03.206Z,88.40
2019-05-09T01:59:30.921Z,87.00
2019-05-09T02:01:58.670Z,89.30
2019-05-09T02:04:26.377Z,87.50
2019-05-09T02:06:54.341Z,88.40
2019-05-09T02:09:24.376Z,88.50
2019-05-09T02:11:54.345Z,89.20
2019-05-09T02:14:30.619Z,90.50
2019-05-09T02:17:06.307Z,88.40
2019-05-09T02:19:36.725Z,88.70
2019-05-09T02:22:24.047Z,89.20
2019-05-09T02:24:53.479Z,89.00
2019-05-09T02:27:23.845Z,91.40
2019-05-09T02:29:51.761Z,91.10
2019-05-09T02:32:19.731Z,90.10
2019-05-09T02:34:47.427Z,90.10
2019-05-09T02:37:18.543Z,90.10
2019-05-09T02:39:44.961Z,89.20
2019-05-09T02:42:14.561Z,88.40
2019-05-09T02:44:42.390Z,87.50
2019-05-09T02:47:24.165Z,88.70
2019-05-09T02:49:51.881Z,86.90
2019-05-09T02:52:20.000Z,87.90
2019-05-09T02:54:50.045Z,87.30
2019-05-09T02:57:18.547Z,88.00
2019-05-09T03:00:12.150Z,88.50
2019-05-09T03:02:59.723Z,88.00
2019-05-09T03:05:29.605Z,86.20
2019-05-09T03:07:58.334Z,88.30
2019-05-09T03:10:29.259Z,88.00
2019-05-09T03:12:59.168Z,86.30
2019-05-09T03:15:29.158Z,87.90
2019-05-09T03:17:59.491Z,88.40
2019-05-09T03:20:58.511Z,86.10
2019-05-09T03:23:28.533Z,86.20
2019-05-09T03:25:58.796Z,86.80
2019-05-09T03:28:44.165Z,86.80
2019-05-09T03:31:14.055Z,87.50
2019-05-09T03:33:41.748Z,87.80
2019-05-09T03:36:09.644Z,87.00
2019-05-09T03:38:37.787Z,88.90
2019-05-09T03:41:08.318Z,87.70
2019-05-09T03:43:37.720Z,86.60
2019-05-09T03:46:12.872Z,87.00
2019-05-09T03:48:47.718Z,88.70
2019-05-09T03:51:15.384Z,88.80
2019-05-09T03:53:43.078Z,88.20
2019-05-09T03:56:13.340Z,89.60
2019-05-09T03:58:41.072Z,88.80
2019-05-09T04:01:10.862Z,87.30
2019-05-09T04:03:38.623Z,89.30
2019-05-09T04:06:08.211Z,88.30
2019-05-09T04:08:38.657Z,89.80
2019-05-09T04:11:08.596Z,88.60
2019-05-09T04:13:41.514Z,88.40
2019-05-09T04:16:09.436Z,89.30
2019-05-09T04:18:37.648Z,89.00
2019-05-09T04:21:08.404Z,88.60
2019-05-09T04:23:37.833Z,87.20
2019-05-09T04:26:14.407Z,87.70
2019-05-09T04:28:42.306Z,88.60
2019-05-09T04:31:10.194Z,89.10
2019-05-09T04:33:38.373Z,89.10
2019-05-09T04:36:08.355Z,89.00
2019-05-09T04:38:39.766Z,88.90
2019-05-09T04:41:07.416Z,89.40
2019-05-09T04:43:39.482Z,88.30
2019-05-09T04:46:08.019Z,88.40
2019-05-09T04:48:37.719Z,86.40
2019-05-09T04:51:07.898Z,86.70
2019-05-09T04:53:42.164Z,86.90
2019-05-09T04:56:33.123Z,88.60
2019-05-09T04:59:01.009Z,88.50
2019-05-09T05:01:47.601Z,88.00
2019-05-09T05:04:15.366Z,86.80
2019-05-09T05:06:43.066Z,87.00
2019-05-09T05:09:10.922Z,88.40
2019-05-09T05:11:38.655Z,88.40
2019-05-09T05:14:09.027Z,88.30
2019-05-09T05:16:39.171Z,87.10
2019-05-09T05:19:07.503Z,89.50
2019-05-09T05:21:37.668Z,89.40
2019-05-09T05:24:10.990Z,89.00
2019-05-09T05:26:38.874Z,87.20
2019-05-09T05:29:08.432Z,87.50
2019-05-09T05:31:38.648Z,89.60
2019-05-09T05:34:20.634Z,89.70
2019-05-09T05:36:50.349Z,87.90
2019-05-09T05:39:18.097Z,90.10
2019-05-09T05:41:48.268Z,88.80
2019-05-09T05:44:17.695Z,89.60
2019-05-09T05:46:53.404Z,88.70
2019-05-09T05:49:21.146Z,87.90
2019-05-09T05:51:49.105Z,88.50
2019-05-09T05:54:19.149Z,88.60
2019-05-09T05:56:47.954Z,88.70
2019-05-09T05:59:17.844Z,87.00
2019-05-09T06:01:47.755Z,88.60
2019-05-09T06:04:18.327Z,87.00
2019-05-09T06:06:47.830Z,83.40
2019-05-09T06:09:15.095Z,84.20
2019-05-09T06:11:42.861Z,86.10
2019-05-09T06:14:11.892Z,85.10
2019-05-09T06:16:39.948Z,85.80
2019-05-09T06:19:08.941Z,84.70
2019-05-09T06:21:37.551Z,84.00
2019-05-09T06:24:05.335Z,82.70
2019-05-09T06:26:33.206Z,83.30
2019-05-09T06:29:01.215Z,83.60
2019-05-09T06:31:29.155Z,83.40
2019-05-09T06:33:57.774Z,85.50
2019-05-09T06:36:28.299Z,83.70
2019-05-09T06:38:55.627Z,84.00
2019-05-09T06:41:23.502Z,84.60
2019-05-09T06:44:13.637Z,84.30
2019-05-09T06:46:42.505Z,85.70
2019-05-09T06:49:26.804Z,84.40
2019-05-09T06:51:43.240Z,84.90
2019-05-09T06:54:10.949Z,83.90
2019-05-09T06:56:38.633Z,81.20
2019-05-09T06:59:07.648Z,81.20
2019-05-09T07:01:57.450Z,79.80
2019-05-09T07:04:37.996Z,80.70
2019-05-09T07:07:25.359Z,79.40
2019-05-09T07:09:55.561Z,79.00
2019-05-09T07:12:23.265Z,79.60
2019-05-09T07:14:51.814Z,77.10
2019-05-09T07:17:19.725Z,77.00
2019-05-09T07:19:48.869Z,76.80
2019-05-09T07:22:39.223Z,76.30
2019-05-09T07:25:32.001Z,74.60
2019-05-09T07:27:59.703Z,76.20
2019-05-09T07:30:48.042Z,74.30
2019-05-09T07:33:41.330Z,72.00
2019-05-09T07:36:09.223Z,71.50
2019-05-09T07:38:38.437Z,71.60
2019-05-09T07:41:08.868Z,71.50
2019-05-09T07:43:38.478Z,69.80
2019-05-09T07:46:09.511Z,67.90
2019-05-09T07:48:38.127Z,67.90
2019-05-09T07:51:07.829Z,67.00
2019-05-09T07:53:37.841Z,64.60
2019-05-09T07:56:07.847Z,61.90
2019-05-09T07:58:37.636Z,61.40
2019-05-09T08:01:05.015Z,55.60
2019-05-09T08:03:32.724Z,53.80
2019-05-09T08:06:00.570Z,49.40
2019-05-09T08:08:28.385Z,49.60
2019-05-09T08:10:58.435Z,49.70
2019-05-09T08:13:28.780Z,49.40
2019-05-09T08:15:58.405Z,48.80
2019-05-09T08:18:28.216Z,47.20
2019-05-09T08:20:57.841Z,43.90
2019-05-09T08:23:27.453Z,41.80
2019-05-09T08:25:57.731Z,38.50
2019-05-09T08:28:25.140Z,37.00
2019-05-09T08:30:52.982Z,36.60
2019-05-09T08:33:22.878Z,36.80
2019-05-09T08:35:52.631Z,38.40
2019-05-09T08:38:21.593Z,38.60
2019-05-09T08:41:05.648Z,40.60
2019-05-09T08:43:37.602Z,40.00
2019-05-09T08:46:07.725Z,41.00
2019-05-09T08:48:37.644Z,36.30
2019-05-09T08:51:09.739Z,36.20
2019-05-09T08:53:38.079Z,35.50
2019-05-09T08:56:08.435Z,36.40
2019-05-09T08:58:38.354Z,37.60
2019-05-09T09:01:09.911Z,31.00
2019-05-09T09:03:37.737Z,32.30
2019-05-09T09:06:08.067Z,32.40
2019-05-09T09:08:37.753Z,31.00
2019-05-09T09:11:05.408Z,31.80
2019-05-09T09:13:33.377Z,31.00
2019-05-09T09:16:14.332Z,32.30
2019-05-09T09:18:31.013Z,31.30
2019-05-09T09:20:58.957Z,30.90
2019-05-09T09:23:40.720Z,31.60
2019-05-09T09:25:58.324Z,31.70
2019-05-09T09:28:27.678Z,33.00
2019-05-09T09:30:55.613Z,34.90
2019-05-09T09:33:23.496Z,34.60
2019-05-09T09:35:52.517Z,32.50
2019-05-09T09:38:20.233Z,32.60
2019-05-09T09:40:48.134Z,29.90
2019-05-09T09:43:17.629Z,30.60
2019-05-09T09:45:47.848Z,28.20
2019-05-09T09:48:17.974Z,30.40
2019-05-09T09:50:50.619Z,30.40
2019-05-09T09:53:14.912Z,28.90
2019-05-09T09:55:44.649Z,28.50
2019-05-09T09:58:12.468Z,27.60
2019-05-09T10:01:03.372Z,27.30
2019-05-09T10:03:31.427Z,27.60
2019-05-09T10:05:59.159Z,27.30
2019-05-09T10:08:26.915Z,26.80
2019-05-09T10:10:54.929Z,26.40
2019-05-09T10:13:22.678Z,26.80
2019-05-09T10:16:03.766Z,26.70
2019-05-09T10:18:51.094Z,26.50
2019-05-09T10:21:23.149Z,26.10
2019-05-09T10:23:50.936Z,25.80
2019-05-09T10:26:18.906Z,26.50
2019-05-09T10:28:48.524Z,27.10
2019-05-09T10:31:16.618Z,28.20
2019-05-09T10:33:47.927Z,28.90
2019-05-09T10:36:15.504Z,26.20
2019-05-09T10:38:43.460Z,28.90
2019-05-09T10:41:11.575Z,27.80
2019-05-09T10:43:57.985Z,27.40
2019-05-09T10:46:57.258Z,26.90
2019-05-09T10:49:20.917Z,26.00
2019-05-09T10:51:48.679Z,28.20
2019-05-09T10:54:18.718Z,28.00
2019-05-09T10:56:48.709Z,27.50
2019-05-09T10:59:18.275Z,28.40
2019-05-09T11:01:49.403Z,27.70
2019-05-09T11:04:18.018Z,28.00
2019-05-09T11:06:45.653Z,27.10
2019-05-09T11:09:13.602Z,27.90
2019-05-09T11:11:41.395Z,27.50
2019-05-09T11:14:09.231Z,27.60
2019-05-09T11:16:45.421Z,26.60
2019-05-09T11:19:08.048Z,26.00
2019-05-09T11:21:38.845Z,26.40
2019-05-09T11:24:08.326Z,25.80
2019-05-09T11:26:39.548Z,24.90
2019-05-09T11:29:08.012Z,24.00
2019-05-09T11:31:38.182Z,22.30
2019-05-09T11:34:08.972Z,21.10
2019-05-09T11:36:37.946Z,23.60
2019-05-09T11:39:10.798Z,24.40
2019-05-09T11:41:38.400Z,24.60
2019-05-09T11:44:08.953Z,22.90
2019-05-09T11:46:38.234Z,23.70
2019-05-09T11:49:08.344Z,23.50
2019-05-09T11:51:35.893Z,23.60
2019-05-09T11:54:03.725Z,23.80
2019-05-09T11:56:31.425Z,22.20
2019-05-09T11:59:00.822Z,21.60
2019-05-09T12:01:29.277Z,22.70
2019-05-09T12:03:57.884Z,22.80
2019-05-09T12:06:28.520Z,23.30
2019-05-09T12:08:55.436Z,22.40
2019-05-09T12:11:23.254Z,23.00
2019-05-09T12:13:50.928Z,21.80
2019-05-09T12:16:20.212Z,21.10
2019-05-09T12:18:49.016Z,21.20
2019-05-09T12:21:19.132Z,22.40
2019-05-09T12:23:48.751Z,22.50
2019-05-09T12:26:17.976Z,22.00
2019-05-09T12:28:48.406Z,21.40
2019-05-09T12:31:18.170Z,20.90
2019-05-09T12:33:47.982Z,21.00
2019-05-09T12:36:15.542Z,19.80
2019-05-09T12:38:46.097Z,20.30
2019-05-09T12:41:13.482Z,20.40
2019-05-09T12:43:41.185Z,20.40
2019-05-09T12:46:11.288Z,21.30
2019-05-09T12:48:41.171Z,22.40
2019-05-09T12:51:09.037Z,24.30
2019-05-09T12:53:39.397Z,25.50
2019-05-09T12:56:08.152Z,26.10
2019-05-09T12:58:36.242Z,26.10
2019-05-09T13:01:07.413Z,26.60
2019-05-09T13:03:35.000Z,26.30
2019-05-09T13:06:02.921Z,25.60
2019-05-09T13:08:30.797Z,25.30
2019-05-09T13:11:18.771Z,26.00
2019-05-09T13:13:48.148Z,24.30
2019-05-09T13:16:49.099Z,24.00
2019-05-09T13:19:12.554Z,22.40
2019-05-09T13:21:40.239Z,22.10
2019-05-09T13:24:08.555Z,22.60
2019-05-09T13:26:38.579Z,22.00
2019-05-09T13:29:08.122Z,22.90
2019-05-09T13:31:39.288Z,23.20
2019-05-09T13:34:07.994Z,24.60
2019-05-09T13:36:35.315Z,25.50
2019-05-09T13:39:05.484Z,25.70
2019-05-09T13:41:37.493Z,27.10
2019-05-09T13:44:08.400Z,26.40
2019-05-09T13:46:38.932Z,28.70
2019-05-09T13:49:14.906Z,26.60
2019-05-09T13:51:47.621Z,24.20
2019-05-09T13:54:07.707Z,25.30
2019-05-09T13:56:36.704Z,24.00
2019-05-09T13:59:04.422Z,25.20
2019-05-09T14:01:32.228Z,25.70
2019-05-09T14:04:00.329Z,25.70
2019-05-09T14:06:29.865Z,25.70
2019-05-09T14:08:59.924Z,25.90
2019-05-09T14:11:29.865Z,25.90
2019-05-09T14:13:57.737Z,24.50
2019-05-09T14:16:28.905Z,24.80
2019-05-09T14:19:00.611Z,22.60
2019-05-09T14:21:29.804Z,24.50
2019-05-09T14:24:10.957Z,23.90
2019-05-09T14:26:27.896Z,22.30
2019-05-09T14:28:58.268Z,22.40
2019-05-09T14:31:32.376Z,22.40
2019-05-09T14:34:00.709Z,23.30
2019-05-09T14:36:30.490Z,21.20
2019-05-09T14:39:00.097Z,20.60
2019-05-09T14:41:27.997Z,20.90
2019-05-09T14:43:56.034Z,19.90
2019-05-09T14:46:23.954Z,19.90
2019-05-09T14:48:51.912Z,19.20
2019-05-09T14:51:19.702Z,18.30
2019-05-09T14:53:48.622Z,19.90
2019-05-09T14:56:16.411Z,22.10
2019-05-09T14:58:44.120Z,20.60
2019-05-09T15:01:11.959Z,19.00
2019-05-09T15:03:39.944Z,20.10
2019-05-09T15:06:08.071Z,18.40
2019-05-09T15:08:38.122Z,18.50
2019-05-09T15:11:08.661Z,19.80
2019-05-09T15:13:35.907Z,17.80
2019-05-09T15:16:03.972Z,18.00
2019-05-09T15:18:32.089Z,17.80
2019-05-09T15:21:00.136Z,19.00
2019-05-09T15:23:29.246Z,20.30
2019-05-09T15:25:58.733Z,20.30
2019-05-09T15:28:28.944Z,21.80
2019-05-09T15:30:59.132Z,21.60
2019-05-09T15:33:27.530Z,21.50
2019-05-09T15:35:58.699Z,22.50
2019-05-09T15:38:29.073Z,23.00
2019-05-09T15:40:58.543Z,22.00
2019-05-09T15:43:26.671Z,22.80
2019-05-09T15:46:04.746Z,22.50
2019-05-09T15:48:32.518Z,21.50
2019-05-09T15:51:00.628Z,22.20
2019-05-09T15:53:28.321Z,22.40
2019-05-09T15:55:58.596Z,22.00
2019-05-09T15:58:28.601Z,22.70
2019-05-09T16:00:55.835Z,22.70
2019-05-09T16:03:24.148Z,22.00
2019-05-09T16:05:52.065Z,22.00
2019-05-09T16:08:20.196Z,23.20
2019-05-09T16:10:48.192Z,24.20
2019-05-09T16:13:17.766Z,26.20
2019-05-09T16:15:45.747Z,26.70
2019-05-09T16:18:13.458Z,27.80
2019-05-09T16:20:41.489Z,29.50
2019-05-09T16:23:09.491Z,35.20
2019-05-09T16:25:38.730Z,40.70
2019-05-09T16:28:08.030Z,45.50
2019-05-09T16:30:38.244Z,46.50
2019-05-09T16:33:07.935Z,49.80
2019-05-09T16:35:37.946Z,50.90
2019-05-09T16:38:09.601Z,52.10
2019-05-09T16:40:34.978Z,51.80
2019-05-09T16:43:02.890Z,52.00
2019-05-09T16:45:30.695Z,54.20
2019-05-09T16:47:58.874Z,52.50
2019-05-09T16:50:26.977Z,53.80
2019-05-09T16:52:54.818Z,54.80
2019-05-09T16:55:31.203Z,55.50
2019-05-09T16:57:57.793Z,55.30
2019-05-09T17:00:39.407Z,54.30
2019-05-09T17:03:08.107Z,54.70
2019-05-09T17:05:37.405Z,55.70
2019-05-09T17:08:08.169Z,55.30
2019-05-09T17:10:37.401Z,57.90
2019-05-09T17:13:07.664Z,55.10
2019-05-09T17:15:35.205Z,54.40
2019-05-09T17:18:02.998Z,54.00
2019-05-09T17:20:38.204Z,53.60
2019-05-09T17:23:14.169Z,53.90
2019-05-09T17:25:38.473Z,52.90
2019-05-09T17:28:09.918Z,53.50
2019-05-09T17:30:39.550Z,53.80
2019-05-09T17:33:08.492Z,55.20
2019-05-09T17:35:38.504Z,56.30
2019-05-09T17:38:08.913Z,58.90
2019-05-09T17:40:39.313Z,63.10
2019-05-09T17:43:08.264Z,67.50
2019-05-09T17:45:42.222Z,68.70
2019-05-09T17:48:09.770Z,71.40
2019-05-09T17:50:38.491Z,74.10
2019-05-09T17:53:08.610Z,76.70
2019-05-09T17:55:38.257Z,76.90
2019-05-09T17:58:08.707Z,78.80
2019-05-09T18:00:40.081Z,80.40
2019-05-09T18:03:08.019Z,80.90
2019-05-09T18:05:38.654Z,81.50
2019-05-09T18:08:08.063Z,81.50
2019-05-09T18:10:37.989Z,82.30
2019-05-09T18:13:07.913Z,82.10
2019-05-09T18:15:37.710Z,81.90
2019-05-09T18:18:05.819Z,79.90
2019-05-09T18:20:33.547Z,78.90
2019-05-09T18:23:03.534Z,80.20
2019-05-09T18:25:31.357Z,79.00
2019-05-09T18:27:59.246Z,79.90
2019-05-09T18:30:27.986Z,77.60
2019-05-09T18:33:02.371Z,77.00
2019-05-09T18:35:30.629Z,77.20
2019-05-09T18:38:02.101Z,77.00
2019-05-09T18:40:31.117Z,75.30
2019-05-09T18:42:59.331Z,76.90
2019-05-09T18:45:28.303Z,78.50
2019-05-09T18:47:58.059Z,77.40
2019-05-09T18:50:26.147Z,77.90
2019-05-09T18:52:53.929Z,77.60
2019-05-09T18:55:21.922Z,76.80
2019-05-09T18:57:49.810Z,76.80
2019-05-09T19:00:20.734Z,77.10
2019-05-09T19:02:48.923Z,76.40
2019-05-09T19:05:17.202Z,75.60
2019-05-09T19:07:45.474Z,75.40
2019-05-09T19:10:15.131Z,76.20
2019-05-09T19:12:42.960Z,76.20
2019-05-09T19:15:18.745Z,76.60
2019-05-09T19:18:06.230Z,76.30
2019-05-09T19:20:48.736Z,76.90
2019-05-09T19:23:16.675Z,77.30
2019-05-09T19:25:44.411Z,77.50
2019-05-09T19:28:12.230Z,77.60
2019-05-09T19:30:44.309Z,77.50
2019-05-09T19:33:12.134Z,77.20
2019-05-09T19:35:39.886Z,76.50
2019-05-09T19:38:07.740Z,75.60
2019-05-09T19:40:35.746Z,76.20
2019-05-09T19:43:03.641Z,75.80
2019-05-09T19:45:31.822Z,75.60
2019-05-09T19:47:59.731Z,75.30
2019-05-09T19:50:27.430Z,75.50
2019-05-09T19:52:55.190Z,75.30
2019-05-09T19:55:23.070Z,74.00
2019-05-09T19:57:50.798Z,76.20
2019-05-09T20:00:19.346Z,76.00
2019-05-09T20:02:47.141Z,76.30
2019-05-09T20:05:14.970Z,76.00
2019-05-09T20:07:43.388Z,78.50
2019-05-09T20:10:30.769Z,78.30
2019-05-09T20:13:21.143Z,78.40
2019-05-09T20:15:49.510Z,77.60
2019-05-09T20:18:17.313Z,78.30
2019-05-09T20:20:45.131Z,79.30
2019-05-09T20:23:13.218Z,80.40
2019-05-09T20:25:41.010Z,80.40
2019-05-09T20:28:08.775Z,80.50
2019-05-09T20:30:36.536Z,80.20
2019-05-09T20:33:04.989Z,80.80
2019-05-09T20:35:32.788Z,80.60
2019-05-09T20:38:00.699Z,79.90
2019-05-09T20:40:28.435Z,80.50
2019-05-09T20:42:56.222Z,79.60
2019-05-09T20:45:24.096Z,80.30
2019-05-09T20:47:51.998Z,80.60
2019-05-09T20:50:19.865Z,78.80
2019-05-09T20:52:47.803Z,78.80
2019-05-09T20:55:15.799Z,77.50
2019-05-09T20:57:43.628Z,78.00
2019-05-09T21:00:11.535Z,78.20
2019-05-09T21:02:39.272Z,77.20
2019-05-09T21:05:08.742Z,77.80
2019-05-09T21:07:36.498Z,77.70
2019-05-09T21:10:05.226Z,76.90
2019-05-09T21:12:33.075Z,78.30
2019-05-09T21:15:00.811Z,76.80
2019-05-09T21:17:28.573Z,76.60
2019-05-09T21:19:56.477Z,77.00
2019-05-09T21:22:25.214Z,77.20
2019-05-09T21:24:53.562Z,78.00
2019-05-09T21:27:21.723Z,78.70
2019-05-09T21:29:49.936Z,78.60
2019-05-09T21:32:17.636Z,76.30
2019-05-09T21:34:45.546Z,76.20
2019-05-09T21:37:14.489Z,75.80
2019-05-09T21:39:42.302Z,76.30
2019-05-09T21:42:10.173Z,73.70
2019-05-09T21:44:37.915Z,75.90
2019-05-09T21:47:05.773Z,75.40
2019-05-09T21:49:33.656Z,76.90
2019-05-09T21:52:01.346Z,75.40
2019-05-09T21:54:29.148Z,75.10
2019-05-09T21:56:57.037Z,76.00
2019-05-09T21:59:25.147Z,75.40
2019-05-09T22:01:56.164Z,75.60
2019-05-09T22:04:24.209Z,75.60
2019-05-09T22:06:52.015Z,75.30
2019-05-09T22:09:20.026Z,76.50
2019-05-09T22:11:47.772Z,75.70
2019-05-09T22:14:15.669Z,74.40
2019-05-09T22:16:43.893Z,75.20
2019-05-09T22:19:13.366Z,75.10
2019-05-09T22:21:41.089Z,75.20
2019-05-09T22:24:08.904Z,74.70
2019-05-09T22:26:36.651Z,73.90
2019-05-09T22:29:04.548Z,73.70
2019-05-09T22:31:33.872Z,73.00
2019-05-09T22:34:01.863Z,73.00
2019-05-09T22:36:29.577Z,74.10
2019-05-09T22:38:57.537Z,74.70
2019-05-09T22:41:25.612Z,76.00
2019-05-09T22:43:54.193Z,78.10
2019-05-09T22:46:22.111Z,79.60
2019-05-09T22:48:50.621Z,79.70
2019-05-09T22:51:18.373Z,80.30
2019-05-09T22:53:47.665Z,81.40
2019-05-09T22:56:15.397Z,84.60
2019-05-09T22:58:43.541Z,84.10
2019-05-09T23:01:11.700Z,84.80
2019-05-09T23:03:39.530Z,87.80
2019-05-09T23:06:07.206Z,89.30
2019-05-09T23:08:38.248Z,90.40
2019-05-09T23:11:06.340Z,90.60
2019-05-09T23:13:51.235Z,92.00
2019-05-09T23:16:20.820Z,91.60
2019-05-09T23:18:50.086Z,91.70
2019-05-09T23:21:18.137Z,92.70
2019-05-09T23:23:51.763Z,92.90
2019-05-09T23:26:21.162Z,93.20
2019-05-09T23:28:48.895Z,93.30
2019-05-09T23:31:21.211Z,93.10
2019-05-09T23:33:49.094Z,93.40
2019-05-09T23:36:16.891Z,93.60
2019-05-09T23:39:03.276Z,93.60
2019-05-09T23:41:31.264Z,94.30
2019-05-09T23:43:59.085Z,93.80
2019-05-09T23:46:27.078Z,94.30
2019-05-09T23:48:55.164Z,94.40
2019-05-09T23:51:24.811Z,94.90
2019-05-09T23:53:52.432Z,95.10
2019-05-09T23:56:40.021Z,95.50
2019-05-09T23:59:26.862Z,94.60
